Bloomfield, Iowa
Current Conditions -  °F | °C
As of 9:53 AM on Thursday 27 Nov 2014 (Local Time) from KOTM Reporting Station
Clear Clear  
Wind Chill: -5°   Ceiling: Unl
Heat Index: 10°   Visibility: 10mi
Dew Point:   Wind: 13mph
Humidity: 67%   Direction: 310°NW
Pressure: 30.52"   Gusts: NA
Location:  40.75°N, 92.41°W
Report Text: KOTM 271553Z AUTO 31011KT 10SM CLR M12/M17 A3052 RMK AO2 SLP349 T11221172
Loading
Personal Weather Stations






























Interactive Weather Map New forecast layout! Learn more

10-Day Weather Forecast

Advertisements
Track Severe Weather on mobile